Time;durP1;ratioP1;P1;durP2;ratioP2;P2;SDS_P1;SDS_P2;PMS_P1;PMS_P2;Temp;Humidity;BMP_temperature;BMP_pressure;BME280_temperature;BME280_humidity;BME280_pressure;Samples;Min_cycle;Max_cycle;Signal;HPM_P1;HPM_P2
2023/08/06 00:00:05;;;;;;;37.80;25.63;;;14.20;99.90;;;;;;4931412;29;20413;-89
2023/08/06 00:02:30;;;;;;;39.38;27.40;;;14.00;99.90;;;;;;4947779;29;20490;-89
2023/08/06 00:04:56;;;;;;;35.55;25.65;;;14.00;99.90;;;;;;4947723;29;20917;-90
2023/08/06 00:07:21;;;;;;;31.57;24.23;;;14.00;99.90;;;;;;4948463;28;20469;-88
2023/08/06 00:09:47;;;;;;;35.38;25.38;;;14.00;99.90;;;;;;4934734;29;20461;-90
2023/08/06 00:12:13;;;;;;;44.60;29.23;;;14.00;99.90;;;;;;4934903;29;20884;-89
2023/08/06 00:14:38;;;;;;;41.25;27.15;;;14.00;99.90;;;;;;4935259;29;20501;-88
2023/08/06 00:17:04;;;;;;;38.73;27.07;;;14.00;99.90;;;;;;4935076;29;20414;-89
2023/08/06 00:19:31;;;;;;;38.65;27.33;;;14.00;99.90;;;;;;4935153;29;20422;-91
2023/08/06 00:21:57;;;;;;;35.13;25.80;;;14.20;99.90;;;;;;4934944;29;20762;-92
2023/08/06 00:24:22;;;;;;;40.92;27.30;;;14.10;99.90;;;;;;4935378;29;20458;-90
2023/08/06 00:26:48;;;;;;;35.80;26.27;;;14.10;99.90;;;;;;4950865;29;20421;-90
2023/08/06 00:29:13;;;;;;;35.58;25.92;;;14.20;99.90;;;;;;4951094;29;20418;-90
2023/08/06 00:31:39;;;;;;;38.97;26.33;;;14.10;99.90;;;;;;4935619;29;20770;-89
2023/08/06 00:34:05;;;;;;;35.42;26.08;;;14.00;99.90;;;;;;4934870;29;20437;-90
2023/08/06 00:36:30;;;;;;;32.40;24.67;;;14.40;99.90;;;;;;4935305;29;20460;-91
2023/08/06 00:38:56;;;;;;;33.10;25.00;;;14.40;99.90;;;;;;4934683;29;20424;-91
2023/08/06 00:41:22;;;;;;;34.10;25.60;;;14.10;99.90;;;;;;4935075;29;20413;-91
2023/08/06 00:43:47;;;;;;;33.92;25.52;;;14.00;99.90;;;;;;4935033;29;20414;-90
2023/08/06 00:46:13;;;;;;;37.33;26.47;;;14.10;99.90;;;;;;4934468;29;20421;-91
2023/08/06 00:48:40;;;;;;;33.28;24.73;;;14.00;99.90;;;;;;4935049;29;20406;-89
2023/08/06 00:51:06;;;;;;;37.83;26.23;;;14.00;99.90;;;;;;4934448;29;20493;-90
2023/08/06 00:53:32;;;;;;;46.38;30.48;;;14.10;99.90;;;;;;4934423;29;20536;-90
2023/08/06 00:55:58;;;;;;;41.67;27.60;;;14.10;99.90;;;;;;4934704;29;20417;-90
2023/08/06 00:58:24;;;;;;;37.75;26.27;;;14.10;99.90;;;;;;4934511;29;20456;-91
2023/08/06 01:00:50;;;;;;;44.15;28.70;;;14.10;99.90;;;;;;4933997;29;20909;-90
2023/08/06 01:03:16;;;;;;;38.30;26.40;;;14.10;99.90;;;;;;4950674;29;20498;-91
2023/08/06 01:05:41;;;;;;;43.50;28.02;;;14.10;99.90;;;;;;4934323;29;20417;-89
2023/08/06 01:08:30;;;;;;;50.87;31.53;;;14.20;99.90;;;;;;4933830;29;20442;-91
2023/08/06 01:11:04;;;;;;;42.20;27.40;;;14.20;99.90;;;;;;4934024;29;20497;-90
2023/08/06 01:13:35;;;;;;;42.67;28.10;;;14.30;99.90;;;;;;4934008;29;20481;-91
2023/08/06 01:16:03;;;;;;;38.38;27.02;;;14.20;99.90;;;;;;4934345;29;21027;-89
2023/08/06 01:18:28;;;;;;;41.33;28.02;;;14.20;99.90;;;;;;4933882;29;20414;-91
2023/08/06 01:20:54;;;;;;;45.03;29.23;;;14.30;99.90;;;;;;4949872;29;20441;-91
2023/08/06 01:23:21;;;;;;;43.60;28.58;;;14.20;99.90;;;;;;4934532;29;20414;-91
2023/08/06 01:25:58;;;;;;;45.03;28.83;;;14.40;99.90;;;;;;4949625;29;20413;-89
2023/08/06 01:28:37;;;;;;;42.15;28.33;;;14.40;99.90;;;;;;4934094;29;20425;-90
2023/08/06 01:31:07;;;;;;;44.90;29.90;;;14.30;99.90;;;;;;4949750;29;20422;-89
2023/08/06 01:33:34;;;;;;;48.20;31.73;;;14.30;99.90;;;;;;4933858;29;20442;-90
2023/08/06 01:36:01;;;;;;;49.72;30.45;;;14.30;99.90;;;;;;4933750;29;20492;-90
2023/08/06 01:38:28;;;;;;;45.58;29.08;;;14.40;99.90;;;;;;4933601;29;20758;-90
2023/08/06 01:40:53;;;;;;;58.90;31.70;;;14.50;99.90;;;;;;4933948;29;20509;-89
2023/08/06 01:43:19;;;;;;;56.70;32.80;;;14.20;99.90;;;;;;4933219;29;20536;-88
2023/08/06 01:45:45;;;;;;;48.53;29.85;;;14.30;99.90;;;;;;4933484;29;20823;-90
2023/08/06 01:48:10;;;;;;;53.43;31.17;;;14.30;99.90;;;;;;4933440;29;20414;-88
2023/08/06 01:50:36;;;;;;;49.83;28.15;;;14.30;99.90;;;;;;4933168;29;20426;-89
2023/08/06 01:53:02;;;;;;;57.77;31.93;;;14.50;99.90;;;;;;4933140;29;20519;-88
2023/08/06 01:55:29;;;;;;;50.63;29.83;;;14.30;99.90;;;;;;4932924;29;21331;-91
2023/08/06 01:57:55;;;;;;;84.27;37.17;;;14.30;99.90;;;;;;4933671;29;20468;-89
2023/08/06 02:00:20;;;;;;;84.25;38.22;;;14.20;99.90;;;;;;4933366;29;20466;-90
2023/08/06 02:02:46;;;;;;;93.20;39.23;;;14.70;99.90;;;;;;4933048;29;20457;-89
2023/08/06 02:05:11;;;;;;;83.78;38.13;;;14.10;99.90;;;;;;4933362;29;20437;-88
2023/08/06 02:07:37;;;;;;;76.20;36.50;;;14.30;99.90;;;;;;4933148;29;20797;-89
2023/08/06 02:10:03;;;;;;;61.28;33.53;;;14.30;99.90;;;;;;4932323;29;20410;-89
2023/08/06 02:12:28;;;;;;;62.83;32.38;;;14.30;99.90;;;;;;4947694;29;20448;-89
2023/08/06 02:14:54;;;;;;;62.73;33.33;;;14.30;99.90;;;;;;4948785;29;20416;-89
2023/08/06 02:17:20;;;;;;;52.38;31.08;;;14.50;99.90;;;;;;4932307;29;20898;-88
2023/08/06 02:19:45;;;;;;;49.43;29.33;;;14.50;99.90;;;;;;4933157;29;20852;-89
2023/08/06 02:22:11;;;;;;;42.45;29.00;;;14.30;99.90;;;;;;4932600;29;20414;-89
2023/08/06 02:24:36;;;;;;;59.57;34.30;;;14.30;99.90;;;;;;4932775;29;20422;-88
2023/08/06 02:27:02;;;;;;;47.67;30.15;;;14.20;99.90;;;;;;4932115;29;20422;-89
2023/08/06 02:29:28;;;;;;;64.60;34.73;;;14.20;99.90;;;;;;4948682;28;20880;-90
2023/08/06 02:31:53;;;;;;;58.75;32.78;;;14.60;99.90;;;;;;4932615;29;20756;-89
2023/08/06 02:34:19;;;;;;;54.60;33.13;;;14.20;99.90;;;;;;4932411;29;20901;-89
2023/08/06 02:36:45;;;;;;;62.78;34.55;;;14.40;99.90;;;;;;4932939;29;20512;-90
2023/08/06 02:39:10;;;;;;;53.03;32.40;;;14.30;99.90;;;;;;4932276;29;20410;-90
2023/08/06 02:41:36;;;;;;;52.15;30.58;;;14.30;99.90;;;;;;4948306;29;20414;-88
2023/08/06 02:44:02;;;;;;;53.83;31.17;;;14.30;99.90;;;;;;4932277;29;20414;-90
2023/08/06 02:46:27;;;;;;;75.18;36.90;;;14.60;99.90;;;;;;4932179;29;20427;-89
2023/08/06 02:48:53;;;;;;;58.70;32.42;;;14.30;99.90;;;;;;4932084;29;20422;-90
2023/08/06 02:51:18;;;;;;;65.20;34.37;;;14.60;99.90;;;;;;4932488;29;20857;-90
2023/08/06 02:53:44;;;;;;;56.85;32.03;;;14.60;99.90;;;;;;4932256;29;20546;-88
2023/08/06 02:56:10;;;;;;;56.70;33.10;;;14.30;99.90;;;;;;4931901;29;20921;-90
2023/08/06 02:58:35;;;;;;;61.35;34.72;;;14.40;99.90;;;;;;4931970;29;20501;-91
2023/08/06 03:01:06;;;;;;;55.90;32.07;;;14.30;99.90;;;;;;4932116;29;20469;-89
2023/08/06 03:03:32;;;;;;;63.65;33.97;;;14.30;99.90;;;;;;4947843;29;20398;-90
2023/08/06 03:05:58;;;;;;;52.92;30.70;;;14.40;99.90;;;;;;4931720;29;20429;-90
2023/08/06 03:08:24;;;;;;;62.13;34.50;;;14.60;99.90;;;;;;4931536;29;20425;-89
2023/08/06 03:10:50;;;;;;;69.88;35.03;;;14.50;99.90;;;;;;4931935;29;20521;-90
2023/08/06 03:13:19;;;;;;;47.65;30.67;;;14.40;99.90;;;;;;4931218;29;20465;-89
2023/08/06 03:15:58;;;;;;;58.73;33.67;;;14.20;99.90;;;;;;4931864;29;20420;-89
2023/08/06 03:18:25;;;;;;;64.93;35.53;;;14.10;99.90;;;;;;4932067;29;20421;-87
2023/08/06 03:20:51;;;;;;;63.85;35.55;;;14.10;99.90;;;;;;4932352;29;20406;-88
2023/08/06 03:23:17;;;;;;;56.83;33.73;;;14.00;99.90;;;;;;4947938;29;20773;-89
2023/08/06 03:25:43;;;;;;;63.10;35.97;;;14.10;99.90;;;;;;4931748;29;20862;-89
2023/08/06 03:28:09;;;;;;;69.03;36.42;;;14.30;99.90;;;;;;4932042;29;20417;-90
2023/08/06 03:30:35;;;;;;;57.03;33.97;;;14.10;99.90;;;;;;4931347;29;20422;-89
2023/08/06 03:33:00;;;;;;;67.30;37.77;;;14.10;99.90;;;;;;4932279;29;20437;-90
2023/08/06 03:35:26;;;;;;;73.50;38.97;;;14.10;99.90;;;;;;4947715;29;20941;-89
2023/08/06 03:37:51;;;;;;;80.03;40.20;;;14.10;99.90;;;;;;4932488;29;20441;-89
2023/08/06 03:40:17;;;;;;;65.15;37.17;;;14.10;99.90;;;;;;4932052;29;20413;-89
2023/08/06 03:42:43;;;;;;;73.88;38.67;;;14.30;99.90;;;;;;4933792;29;20410;-88
2023/08/06 03:45:09;;;;;;;68.47;37.53;;;14.10;99.90;;;;;;4935427;29;20549;-89
2023/08/06 03:47:34;;;;;;;66.65;37.08;;;14.10;99.90;;;;;;4935087;29;20445;-89
2023/08/06 03:50:00;;;;;;;74.55;40.35;;;14.10;99.90;;;;;;4935462;29;20508;-89
2023/08/06 03:52:26;;;;;;;72.03;38.03;;;14.10;99.90;;;;;;4951066;29;20925;-89
2023/08/06 03:54:51;;;;;;;63.65;36.83;;;14.10;99.90;;;;;;4935311;29;20425;-90
2023/08/06 03:57:18;;;;;;;72.33;38.03;;;14.40;99.90;;;;;;4935050;29;20514;-90
2023/08/06 03:59:43;;;;;;;67.40;37.83;;;14.10;99.90;;;;;;4935245;29;20460;-88
2023/08/06 04:02:09;;;;;;;70.33;38.30;;;14.30;99.90;;;;;;4935405;29;20842;-89
2023/08/06 04:04:35;;;;;;;78.20;39.45;;;14.30;99.90;;;;;;4934896;29;20450;-89
2023/08/06 04:07:00;;;;;;;55.83;33.80;;;14.10;99.90;;;;;;4935569;29;20944;-90
2023/08/06 04:09:28;;;;;;;64.28;36.63;;;14.10;99.90;;;;;;4935106;29;20437;-90
2023/08/06 04:11:54;;;;;;;71.40;38.97;;;14.00;99.90;;;;;;4935327;29;20414;-89
2023/08/06 04:14:19;;;;;;;78.33;39.80;;;14.10;99.90;;;;;;4950587;29;20814;-90
2023/08/06 04:16:45;;;;;;;64.03;36.40;;;14.10;99.90;;;;;;4951084;29;20417;-89
2023/08/06 04:19:11;;;;;;;112.73;45.73;;;14.40;99.90;;;;;;4934539;29;20468;-89
2023/08/06 04:21:36;;;;;;;82.28;39.78;;;14.10;99.90;;;;;;4934453;29;20418;-89
2023/08/06 04:24:02;;;;;;;90.67;41.40;;;14.20;99.90;;;;;;4935249;29;20422;-89
2023/08/06 04:26:28;;;;;;;156.30;49.80;;;14.10;99.90;;;;;;4934453;29;20490;-90
2023/08/06 04:28:53;;;;;;;80.90;38.23;;;14.10;99.90;;;;;;4934890;29;20406;-89
2023/08/06 04:31:19;;;;;;;73.03;38.22;;;14.10;99.90;;;;;;4934651;29;20516;-89
2023/08/06 04:33:44;;;;;;;80.83;40.80;;;14.20;99.90;;;;;;4934354;29;20533;-89
2023/08/06 04:36:10;;;;;;;101.60;42.25;;;14.20;99.90;;;;;;4934180;29;20814;-89
2023/08/06 04:38:36;;;;;;;121.27;45.27;;;14.20;99.90;;;;;;4934338;29;20414;-90
2023/08/06 04:41:04;;;;;;;139.55;47.97;;;14.20;99.90;;;;;;4933890;29;20836;-89
2023/08/06 04:43:30;;;;;;;80.60;39.13;;;14.20;99.90;;;;;;4934051;29;20441;-87
2023/08/06 04:45:56;;;;;;;59.60;35.43;;;14.10;99.90;;;;;;4933828;29;20449;-89
2023/08/06 04:48:22;;;;;;;64.38;37.45;;;14.10;99.90;;;;;;4933117;29;20909;-89
2023/08/06 04:50:49;;;;;;;69.93;38.15;;;14.20;99.90;;;;;;4932336;29;21003;-88
2023/08/06 04:53:15;;;;;;;78.40;40.35;;;14.20;99.90;;;;;;4932910;29;20437;-87
2023/08/06 04:55:41;;;;;;;82.00;40.88;;;14.20;99.90;;;;;;4932512;29;20402;-89
2023/08/06 04:58:08;;;;;;;115.55;44.47;;;14.20;99.90;;;;;;4933068;29;20441;-88
2023/08/06 05:00:34;;;;;;;105.47;42.55;;;14.60;99.90;;;;;;4933949;29;20504;-89
2023/08/06 05:03:01;;;;;;;141.30;49.83;;;14.20;99.90;;;;;;4934082;29;20890;-91
2023/08/06 05:05:27;;;;;;;68.15;37.45;;;14.20;99.90;;;;;;4934065;29;20418;-89
2023/08/06 05:07:55;;;;;;;100.07;42.78;;;14.50;99.90;;;;;;4934177;29;20424;-91
2023/08/06 05:10:20;;;;;;;92.05;41.25;;;14.50;99.90;;;;;;4933623;29;20906;-89
2023/08/06 05:12:46;;;;;;;77.70;38.50;;;14.30;99.90;;;;;;4933955;29;20438;-91
2023/08/06 05:15:12;;;;;;;67.32;37.38;;;14.40;99.90;;;;;;4934037;29;20537;-90
2023/08/06 05:17:37;;;;;;;68.20;37.20;;;14.40;99.90;;;;;;4930681;29;20416;-90
2023/08/06 05:20:04;;;;;;;79.47;39.07;;;14.40;99.90;;;;;;4915125;29;20403;-89
2023/08/06 05:22:29;;;;;;;108.18;42.22;;;14.50;99.90;;;;;;4930337;29;20416;-91
2023/08/06 05:24:55;;;;;;;74.65;39.50;;;14.60;99.90;;;;;;4915357;29;20929;-90
2023/08/06 05:27:21;;;;;;;65.33;36.27;;;14.80;99.90;;;;;;4920019;29;20441;-88
2023/08/06 05:29:48;;;;;;;76.70;37.03;;;14.60;99.90;;;;;;4941326;29;20757;-90
2023/08/06 05:32:14;;;;;;;77.00;38.88;;;14.80;99.90;;;;;;4923920;29;20418;-90
2023/08/06 05:34:41;;;;;;;114.87;44.20;;;14.60;99.90;;;;;;4933839;29;20430;-89
2023/08/06 05:37:07;;;;;;;68.75;36.30;;;14.60;99.90;;;;;;4933939;29;20406;-89
2023/08/06 05:39:32;;;;;;;79.35;38.33;;;14.90;99.90;;;;;;4933185;29;20432;-91
2023/08/06 05:41:58;;;;;;;78.17;38.17;;;14.50;99.90;;;;;;4933687;29;20428;-90
2023/08/06 05:44:24;;;;;;;70.80;37.45;;;14.80;99.90;;;;;;4933378;29;20834;-90
2023/08/06 05:46:50;;;;;;;71.65;37.42;;;14.80;99.90;;;;;;4933955;29;20460;-88
2023/08/06 05:49:15;;;;;;;95.53;40.00;;;14.90;99.90;;;;;;4933708;29;20422;-90
2023/08/06 05:51:41;;;;;;;61.45;36.05;;;14.90;99.90;;;;;;4933718;29;20414;-90
2023/08/06 05:54:07;;;;;;;74.63;38.53;;;15.30;99.90;;;;;;4933139;29;20445;-90
2023/08/06 05:56:33;;;;;;;54.90;35.78;;;15.60;99.90;;;;;;4933116;29;20499;-89
2023/08/06 05:58:59;;;;;;;43.53;31.87;;;15.50;99.90;;;;;;4933422;29;20441;-88
2023/08/06 06:01:24;;;;;;;62.33;37.20;;;15.90;99.90;;;;;;4933225;29;20523;-90
2023/08/06 06:03:50;;;;;;;39.93;29.43;;;16.10;99.90;;;;;;4932896;29;20417;-90
2023/08/06 06:06:16;;;;;;;26.13;23.08;;;16.30;99.90;;;;;;4948112;28;20410;-88
2023/08/06 06:08:42;;;;;;;26.10;23.30;;;16.50;99.90;;;;;;4933074;29;20426;-89
2023/08/06 06:11:07;;;;;;;33.37;27.73;;;16.60;99.90;;;;;;4948906;29;20406;-90
2023/08/06 06:13:33;;;;;;;26.60;23.67;;;16.70;99.90;;;;;;4932879;29;20526;-90
2023/08/06 06:15:58;;;;;;;23.83;21.40;;;16.70;99.90;;;;;;4932985;29;20410;-89
2023/08/06 06:18:24;;;;;;;24.57;21.90;;;17.00;99.90;;;;;;4932764;29;20418;-91
2023/08/06 06:20:50;;;;;;;25.30;22.70;;;17.40;99.90;;;;;;4932866;29;20550;-89
2023/08/06 06:23:15;;;;;;;23.90;21.50;;;17.10;99.90;;;;;;4932517;29;20767;-90
2023/08/06 06:25:49;;;;;;;25.33;22.63;;;17.10;99.90;;;;;;4948611;29;20421;-90
2023/08/06 06:28:14;;;;;;;24.40;21.52;;;17.00;99.90;;;;;;4932415;29;20438;-89
2023/08/06 06:30:41;;;;;;;24.37;21.87;;;16.90;99.90;;;;;;4933316;29;20919;-90
2023/08/06 06:33:07;;;;;;;26.00;22.60;;;17.20;99.90;;;;;;4933031;29;20449;-90
2023/08/06 06:35:36;;;;;;;21.50;19.42;;;17.00;99.90;;;;;;4932517;29;20431;-91
2023/08/06 06:38:02;;;;;;;24.00;21.48;;;17.00;99.90;;;;;;4932711;29;20418;-91
2023/08/06 06:40:28;;;;;;;20.80;18.67;;;17.30;99.90;;;;;;4932573;29;20943;-89
2023/08/06 06:42:53;;;;;;;20.53;18.40;;;17.10;99.90;;;;;;4932675;29;20406;-90
2023/08/06 06:45:19;;;;;;;21.27;19.00;;;17.10;99.90;;;;;;4932563;29;20425;-89
2023/08/06 06:47:45;;;;;;;22.83;20.53;;;17.00;99.90;;;;;;4932612;29;20414;-91
2023/08/06 06:50:10;;;;;;;24.10;20.50;;;17.00;99.90;;;;;;4932115;29;20414;-91
2023/08/06 06:52:37;;;;;;;22.60;20.27;;;17.00;99.90;;;;;;4930401;29;20801;-91
2023/08/06 06:55:03;;;;;;;19.10;17.30;;;17.30;99.90;;;;;;4917995;29;20406;-91
2023/08/06 06:57:29;;;;;;;19.30;17.40;;;17.00;99.90;;;;;;4929811;29;20557;-90
2023/08/06 06:59:54;;;;;;;18.67;16.83;;;17.00;99.90;;;;;;4924523;29;20446;-91
2023/08/06 07:02:20;;;;;;;18.05;16.38;;;17.70;99.90;;;;;;4919676;29;20502;-91
2023/08/06 07:04:46;;;;;;;19.75;17.92;;;17.00;99.90;;;;;;4930009;29;20829;-91
2023/08/06 07:07:12;;;;;;;19.00;17.30;;;17.00;99.90;;;;;;4932408;29;20470;-91
2023/08/06 07:09:37;;;;;;;24.02;21.42;;;17.00;99.90;;;;;;4948368;29;20414;-91
2023/08/06 07:12:03;;;;;;;17.00;15.30;;;17.50;99.90;;;;;;4932496;29;20774;-90
2023/08/06 07:14:29;;;;;;;19.70;17.48;;;17.30;99.90;;;;;;4932738;29;21285;-90
2023/08/06 07:16:55;;;;;;;20.90;18.98;;;17.30;99.90;;;;;;4933663;29;20413;-90
2023/08/06 07:19:21;;;;;;;19.07;17.37;;;17.40;99.90;;;;;;4951972;29;20422;-90
2023/08/06 07:21:46;;;;;;;21.25;19.23;;;17.50;99.90;;;;;;4936362;29;20465;-91
2023/08/06 07:24:12;;;;;;;19.67;17.87;;;17.50;99.90;;;;;;4936218;29;20406;-90
2023/08/06 07:26:38;;;;;;;16.15;14.75;;;17.60;99.90;;;;;;4947159;29;20569;-91
2023/08/06 07:29:03;;;;;;;18.58;16.77;;;17.80;99.90;;;;;;4905710;29;20493;-91
2023/08/06 07:31:29;;;;;;;19.23;17.33;;;17.80;99.90;;;;;;4920255;29;20410;-91
2023/08/06 07:33:55;;;;;;;15.68;14.18;;;17.80;99.90;;;;;;4909698;29;20474;-91
2023/08/06 07:36:21;;;;;;;14.93;13.60;;;17.90;99.90;;;;;;4901021;29;20411;-91
2023/08/06 07:38:48;;;;;;;16.23;14.63;;;17.90;99.90;;;;;;4901204;29;20531;-90
2023/08/06 07:41:14;;;;;;;16.10;14.63;;;18.00;99.90;;;;;;4916755;29;20518;-90
2023/08/06 07:43:39;;;;;;;15.67;14.17;;;18.00;99.90;;;;;;4901341;29;20947;-90
2023/08/06 07:46:05;;;;;;;12.97;11.87;;;18.10;99.90;;;;;;4920112;29;20457;-91
2023/08/06 07:48:31;;;;;;;13.68;12.38;;;18.20;99.90;;;;;;4920143;29;20418;-90
2023/08/06 07:50:57;;;;;;;14.93;13.52;;;18.10;99.90;;;;;;4920540;29;20584;-91
2023/08/06 07:53:26;;;;;;;11.57;10.55;;;18.50;99.90;;;;;;4919524;29;20453;-91
2023/08/06 07:55:53;;;;;;;11.15;10.15;;;18.60;99.90;;;;;;4935794;29;20421;-91
2023/08/06 07:58:19;;;;;;;10.10;9.30;;;18.60;99.90;;;;;;4935077;29;20791;-91
2023/08/06 08:00:46;;;;;;;11.88;10.77;;;18.60;99.90;;;;;;4919304;29;20485;-91
2023/08/06 08:03:15;;;;;;;10.35;9.35;;;18.60;99.90;;;;;;4935348;29;20414;-91
2023/08/06 08:05:42;;;;;;;11.10;10.10;;;18.80;99.90;;;;;;4918931;29;20445;-92
2023/08/06 08:08:08;;;;;;;8.07;7.45;;;19.00;99.90;;;;;;4934429;29;20503;-90
2023/08/06 08:10:34;;;;;;;7.50;6.80;;;19.20;99.90;;;;;;4918570;29;20510;-89
2023/08/06 08:13:01;;;;;;;6.80;6.10;;;19.60;99.90;;;;;;4934179;29;21123;-89
2023/08/06 08:15:29;;;;;;;6.78;6.18;;;19.70;99.90;;;;;;4918627;29;20500;-90
2023/08/06 08:17:55;;;;;;;6.00;5.50;;;20.00;99.90;;;;;;4919272;29;20472;-92
2023/08/06 08:20:20;;;;;;;6.70;6.10;;;20.00;99.90;;;;;;4918669;29;20445;-90
2023/08/06 08:22:46;;;;;;;7.05;6.47;;;20.10;99.90;;;;;;4918527;29;20414;-90
2023/08/06 08:25:12;;;;;;;4.57;4.18;;;20.20;99.90;;;;;;4918408;29;20508;-90
2023/08/06 08:27:38;;;;;;;5.40;4.90;;;20.70;99.90;;;;;;4930653;29;20407;-89
2023/08/06 08:30:05;;;;;;;5.33;4.83;;;20.40;99.90;;;;;;4930697;29;20410;-90
2023/08/06 08:32:30;;;;;;;6.60;6.00;;;20.40;99.90;;;;;;4982400;28;20437;-90
2023/08/06 08:34:56;;;;;;;5.90;5.40;;;20.40;99.90;;;;;;4982295;28;20440;-89
2023/08/06 08:37:23;;;;;;;5.95;5.35;;;20.60;99.90;;;;;;4965947;28;20433;-89
2023/08/06 08:39:49;;;;;;;5.82;5.32;;;20.20;99.90;;;;;;4966366;28;20410;-88
2023/08/06 08:42:15;;;;;;;4.60;4.10;;;20.20;99.90;;;;;;4949472;29;20440;-91
2023/08/06 08:44:43;;;;;;;4.70;4.30;;;20.10;99.90;;;;;;4934245;29;20475;-89
2023/08/06 08:47:10;;;;;;;6.20;4.70;;;20.20;99.90;;;;;;4950784;29;20488;-91
2023/08/06 08:49:36;;;;;;;5.63;4.57;;;19.90;99.90;;;;;;4981877;28;20445;-90
2023/08/06 08:52:06;;;;;;;5.65;5.10;;;20.00;99.90;;;;;;4934171;29;20508;-89
2023/08/06 08:54:33;;;;;;;7.70;6.90;;;20.00;99.90;;;;;;4933455;29;20470;-90
2023/08/06 08:56:59;;;;;;;7.03;6.32;;;20.10;99.90;;;;;;4934304;29;20461;-90
2023/08/06 08:59:24;;;;;;;6.88;6.28;;;20.10;99.90;;;;;;4933826;29;20460;-90
2023/08/06 09:01:51;;;;;;;5.60;5.03;;;20.30;99.90;;;;;;4950286;29;20410;-90
2023/08/06 09:04:19;;;;;;;5.73;5.10;;;20.80;99.90;;;;;;4982039;28;20410;-89
2023/08/06 09:06:49;;;;;;;5.55;5.05;;;21.10;99.90;;;;;;4933940;29;20840;-91
2023/08/06 09:09:33;;;;;;;5.55;4.82;;;21.70;99.90;;;;;;4973889;28;20414;-91
2023/08/06 09:12:02;;;;;;;5.13;4.50;;;21.50;99.90;;;;;;4923932;29;20504;-90
2023/08/06 09:14:27;;;;;;;4.38;3.97;;;21.70;99.90;;;;;;4937176;29;20905;-91
2023/08/06 09:16:54;;;;;;;4.60;4.20;;;21.70;99.90;;;;;;4949494;29;20418;-91
2023/08/06 09:19:20;;;;;;;3.60;3.10;;;21.60;99.90;;;;;;4933783;29;20452;-90
2023/08/06 09:21:49;;;;;;;4.25;2.42;;;21.50;99.90;;;;;;4933658;29;20428;-90
2023/08/06 09:24:15;;;;;;;3.22;1.88;;;21.60;99.90;;;;;;4933418;29;20418;-90
2023/08/06 09:26:43;;;;;;;3.08;1.80;;;21.70;99.90;;;;;;4933715;29;20429;-90
2023/08/06 09:29:12;;;;;;;2.67;1.48;;;21.80;99.90;;;;;;4934080;29;20417;-91
2023/08/06 09:31:48;;;;;;;2.42;1.40;;;22.00;99.90;;;;;;4933711;29;20446;-90
2023/08/06 09:34:22;;;;;;;2.45;1.65;;;22.20;98.40;;;;;;4949339;29;20500;-90
2023/08/06 09:36:54;;;;;;;2.15;1.20;;;22.30;99.90;;;;;;4933708;29;20473;-90
2023/08/06 09:39:27;;;;;;;3.13;1.50;;;22.60;99.90;;;;;;4933503;28;20422;-90
2023/08/06 09:42:00;;;;;;;2.25;1.50;;;23.00;97.40;;;;;;4933406;29;20410;-91
2023/08/06 09:44:28;;;;;;;2.20;1.30;;;23.00;93.90;;;;;;4930943;29;20418;-91
2023/08/06 09:46:59;;;;;;;2.20;1.40;;;22.90;94.10;;;;;;4949443;29;20437;-90
2023/08/06 09:49:33;;;;;;;2.80;1.53;;;23.00;94.20;;;;;;4933623;29;20414;-91
2023/08/06 09:52:00;;;;;;;3.90;2.00;;;22.90;96.20;;;;;;4949546;29;21017;-90
2023/08/06 09:54:30;;;;;;;2.60;1.80;;;22.80;99.90;;;;;;4948777;29;20473;-89
2023/08/06 09:56:56;;;;;;;3.10;2.25;;;22.90;99.90;;;;;;4932228;29;20505;-90
2023/08/06 09:59:25;;;;;;;2.15;1.23;;;22.60;99.90;;;;;;4932009;29;20418;-90
2023/08/06 10:01:51;;;;;;;3.05;1.30;;;22.50;99.90;;;;;;4932262;29;20478;-92
2023/08/06 10:04:17;;;;;;;7.40;1.40;;;23.00;99.90;;;;;;4948700;29;20438;-91
2023/08/06 10:06:47;;;;;;;2.42;1.17;;;22.80;99.90;;;;;;4933016;29;20402;-91
2023/08/06 10:09:13;;;;;;;2.13;1.20;;;23.10;99.90;;;;;;4932979;29;20405;-88
2023/08/06 10:11:39;;;;;;;3.65;1.27;;;23.00;93.60;;;;;;4948290;29;20414;-89
2023/08/06 10:14:16;;;;;;;2.63;1.00;;;22.90;99.90;;;;;;4933143;29;20522;-90
2023/08/06 10:16:42;;;;;;;2.28;0.90;;;23.10;94.40;;;;;;4948126;29;20450;-92
2023/08/06 10:19:10;;;;;;;2.55;0.98;;;23.10;99.90;;;;;;4931382;29;20497;-89
2023/08/06 10:21:37;;;;;;;2.10;0.82;;;23.20;98.80;;;;;;4931709;29;20468;-90
2023/08/06 10:24:09;;;;;;;1.90;1.05;;;23.10;93.60;;;;;;4931944;29;20417;-91
2023/08/06 10:26:35;;;;;;;2.97;1.00;;;23.20;99.90;;;;;;4933115;29;20450;-89
2023/08/06 10:29:00;;;;;;;2.38;1.00;;;23.20;81.10;;;;;;4932264;29;20989;-89
2023/08/06 10:31:55;;;;;;;2.00;0.93;;;23.40;96.10;;;;;;4932603;29;20484;-94
2023/08/06 10:34:21;;;;;;;1.80;0.68;;;23.50;95.90;;;;;;4948731;29;20438;-90
2023/08/06 10:36:47;;;;;;;1.80;0.80;;;23.50;86.40;;;;;;4923773;29;20491;-94
2023/08/06 10:39:15;;;;;;;1.95;0.80;;;23.70;79.70;;;;;;4930777;29;20942;-91
2023/08/06 10:41:43;;;;;;;2.10;1.00;;;24.00;84.40;;;;;;4929109;29;20411;-89
2023/08/06 10:44:10;;;;;;;2.78;1.02;;;24.10;83.90;;;;;;4913154;29;20422;-87
2023/08/06 10:46:37;;;;;;;2.78;1.13;;;24.20;89.40;;;;;;4929135;29;20416;-93
2023/08/06 10:49:04;;;;;;;1.60;0.95;;;24.20;71.40;;;;;;4912961;29;20508;-89
2023/08/06 10:51:30;;;;;;;3.17;1.20;;;24.20;77.80;;;;;;4927110;29;20871;-90
2023/08/06 10:53:57;;;;;;;2.55;1.30;;;24.30;77.80;;;;;;4912165;29;20440;-90
2023/08/06 10:56:27;;;;;;;2.92;1.50;;;24.30;76.30;;;;;;4912770;29;20419;-92
2023/08/06 10:58:57;;;;;;;1.90;1.10;;;24.20;84.00;;;;;;4912715;29;20416;-89
2023/08/06 11:01:23;;;;;;;2.92;1.25;;;23.90;75.20;;;;;;4912695;29;20423;-91
2023/08/06 11:03:50;;;;;;;4.30;0.93;;;23.90;78.30;;;;;;4912522;29;20910;-90
2023/08/06 11:06:23;;;;;;;1.88;0.95;;;23.80;72.10;;;;;;4929226;29;21076;-92
2023/08/06 11:08:54;;;;;;;2.53;1.20;;;23.60;71.60;;;;;;4912690;29;20460;-90
2023/08/06 11:11:20;;;;;;;2.05;1.30;;;23.70;98.60;;;;;;4912789;29;20982;-91
2023/08/06 11:13:48;;;;;;;2.38;1.00;;;23.70;99.90;;;;;;4912664;29;20435;-88
2023/08/06 11:16:19;;;;;;;3.55;1.40;;;23.70;91.30;;;;;;4928950;29;20426;-91
2023/08/06 11:18:44;;;;;;;3.17;1.48;;;23.50;91.80;;;;;;4929345;29;20506;-93
2023/08/06 11:21:13;;;;;;;4.32;1.63;;;23.30;90.00;;;;;;4913193;29;20844;-93
2023/08/06 11:23:40;;;;;;;3.53;1.58;;;22.70;88.90;;;;;;4912468;29;20453;-90
2023/08/06 11:26:07;;;;;;;2.25;1.60;;;22.60;99.00;;;;;;4928827;29;20419;-88
2023/08/06 11:28:32;;;;;;;2.53;1.52;;;22.50;97.90;;;;;;4912571;29;20415;-89
2023/08/06 11:31:02;;;;;;;3.33;1.65;;;22.40;94.30;;;;;;4912132;29;20491;-89
2023/08/06 11:33:28;;;;;;;1.92;1.50;;;22.30;99.90;;;;;;4912221;29;20435;-89
2023/08/06 11:35:58;;;;;;;3.22;1.40;;;22.20;99.90;;;;;;4913009;29;20427;-91
2023/08/06 11:38:28;;;;;;;3.05;1.27;;;22.20;99.90;;;;;;4912390;29;20426;-92
2023/08/06 11:40:54;;;;;;;2.60;1.17;;;21.80;99.50;;;;;;4912414;29;20431;-89
2023/08/06 11:43:22;;;;;;;4.10;1.58;;;21.90;97.80;;;;;;4927723;29;20434;-89
2023/08/06 11:45:48;;;;;;;2.95;1.10;;;21.90;99.90;;;;;;4911926;29;20407;-88
2023/08/06 11:48:14;;;;;;;2.75;1.40;;;21.80;99.90;;;;;;4927702;29;20430;-88
2023/08/06 11:50:40;;;;;;;3.10;1.30;;;22.10;99.90;;;;;;4913331;29;20419;-91
2023/08/06 11:53:06;;;;;;;2.43;1.17;;;21.90;99.90;;;;;;4912746;29;20979;-90
2023/08/06 11:55:32;;;;;;;3.60;1.40;;;22.20;99.90;;;;;;4912565;29;20407;-89
2023/08/06 11:57:57;;;;;;;2.20;1.30;;;21.80;99.90;;;;;;4928497;29;20574;-89
2023/08/06 12:00:24;;;;;;;3.37;1.53;;;21.80;99.90;;;;;;4912233;29;20474;-89
2023/08/06 12:02:52;;;;;;;2.15;1.23;;;21.80;99.90;;;;;;4912581;29;20419;-88
2023/08/06 12:05:29;;;;;;;1.95;0.93;;;22.20;99.90;;;;;;4931215;29;20422;-90
2023/08/06 12:07:59;;;;;;;2.17;1.10;;;22.70;99.90;;;;;;4916132;29;20428;-87
2023/08/06 12:10:27;;;;;;;3.10;1.10;;;22.70;99.90;;;;;;4915459;29;20432;-89
2023/08/06 12:12:53;;;;;;;2.28;0.88;;;23.50;99.90;;;;;;4930827;29;20440;-88
2023/08/06 12:15:19;;;;;;;2.13;0.93;;;24.20;97.40;;;;;;4930801;29;20864;-90
2023/08/06 12:17:44;;;;;;;2.27;0.80;;;24.70;90.50;;;;;;4915909;29;20455;-91
2023/08/06 12:20:11;;;;;;;2.22;0.80;;;24.90;71.30;;;;;;4915983;29;20419;-90
2023/08/06 12:22:39;;;;;;;2.20;0.97;;;25.40;76.40;;;;;;4932154;29;20412;-91
2023/08/06 12:25:07;;;;;;;2.03;0.80;;;25.50;76.40;;;;;;4915635;29;20426;-88
2023/08/06 12:27:37;;;;;;;2.17;1.00;;;25.40;64.60;;;;;;4914946;29;20434;-89
2023/08/06 12:30:04;;;;;;;1.77;1.00;;;25.10;71.50;;;;;;4915164;29;20407;-88